createdAt,value
2023-05-19T00:00:18.809Z,82.77
2023-05-19T00:03:09.196Z,82.90
2023-05-19T00:05:41.003Z,82.92
2023-05-19T00:08:11.040Z,82.98
2023-05-19T00:10:39.336Z,82.99
2023-05-19T00:13:08.252Z,83.13
2023-05-19T00:15:36.682Z,83.47
2023-05-19T00:18:04.728Z,83.51
2023-05-19T00:20:32.868Z,83.25
2023-05-19T00:23:01.954Z,83.42
2023-05-19T00:25:29.887Z,83.59
2023-05-19T00:27:59.253Z,83.74
2023-05-19T00:30:27.591Z,83.66
2023-05-19T00:32:56.008Z,83.76
2023-05-19T00:35:24.748Z,84.05
2023-05-19T00:37:52.639Z,83.99
2023-05-19T00:40:21.008Z,84.19
2023-05-19T00:42:48.883Z,84.15
2023-05-19T00:45:16.828Z,84.18
2023-05-19T00:47:44.854Z,84.26
2023-05-19T00:50:12.725Z,84.48
2023-05-19T00:52:40.683Z,84.59
2023-05-19T00:55:09.876Z,84.31
2023-05-19T00:57:38.868Z,84.40
2023-05-19T01:00:07.475Z,84.24
2023-05-19T01:02:39.999Z,84.47
2023-05-19T01:05:09.416Z,84.24
2023-05-19T01:07:38.200Z,84.20
2023-05-19T01:10:06.727Z,84.33
2023-05-19T01:12:35.994Z,84.44
2023-05-19T01:15:05.429Z,84.56
2023-05-19T01:17:38.045Z,84.42
2023-05-19T01:20:18.989Z,84.79
2023-05-19T01:23:05.249Z,85.12
2023-05-19T01:26:10.762Z,85.49
2023-05-19T01:28:56.888Z,85.60
2023-05-19T01:31:26.887Z,85.68
2023-05-19T01:33:55.899Z,86.07
2023-05-19T01:36:27.032Z,86.30
2023-05-19T01:39:00.433Z,86.32
2023-05-19T01:41:30.366Z,86.27
2023-05-19T01:43:58.600Z,85.92
2023-05-19T01:46:26.820Z,85.84
2023-05-19T01:48:55.084Z,86.04
2023-05-19T01:51:23.034Z,86.15
2023-05-19T01:53:51.407Z,86.15
2023-05-19T01:56:34.114Z,86.01
2023-05-19T01:59:16.051Z,86.08
2023-05-19T02:01:53.322Z,86.25
2023-05-19T02:04:44.956Z,86.35
2023-05-19T02:07:40.574Z,86.23
2023-05-19T02:10:24.396Z,86.22
2023-05-19T02:12:53.824Z,86.17
2023-05-19T02:15:26.680Z,86.16
2023-05-19T02:17:55.839Z,86.28
2023-05-19T02:20:23.765Z,86.30
2023-05-19T02:22:51.863Z,86.28
2023-05-19T02:25:19.790Z,86.46
2023-05-19T02:27:49.253Z,86.79
2023-05-19T02:30:17.219Z,87.02
2023-05-19T02:32:47.973Z,87.14
2023-05-19T02:35:16.263Z,87.50
2023-05-19T02:37:44.408Z,87.60
2023-05-19T02:40:12.428Z,87.90
2023-05-19T02:42:40.475Z,87.73
2023-05-19T02:45:08.921Z,87.73
2023-05-19T02:47:38.390Z,87.72
2023-05-19T02:50:06.921Z,87.74
2023-05-19T02:52:34.923Z,87.50
2023-05-19T02:55:02.767Z,87.14
2023-05-19T02:57:31.763Z,86.79
2023-05-19T02:59:59.942Z,86.54
2023-05-19T03:02:27.977Z,86.71
2023-05-19T03:04:56.004Z,86.99
2023-05-19T03:07:25.364Z,86.80
2023-05-19T03:09:53.621Z,86.72
2023-05-19T03:12:22.045Z,86.92
2023-05-19T03:14:50.145Z,87.03
2023-05-19T03:17:18.099Z,87.07
2023-05-19T03:19:46.094Z,87.28
2023-05-19T03:22:13.929Z,87.24
2023-05-19T03:24:42.190Z,87.26
2023-05-19T03:27:10.401Z,87.11
2023-05-19T03:29:38.449Z,87.27
2023-05-19T03:32:06.554Z,87.15
2023-05-19T03:34:35.452Z,87.25
2023-05-19T03:37:03.482Z,87.57
2023-05-19T03:39:31.649Z,87.45
2023-05-19T03:41:59.609Z,87.74
2023-05-19T03:44:27.551Z,87.68
2023-05-19T03:46:55.548Z,87.56
2023-05-19T03:49:23.502Z,87.40
2023-05-19T03:51:51.674Z,87.58
2023-05-19T03:54:21.333Z,87.28
2023-05-19T03:56:49.497Z,87.32
2023-05-19T03:59:17.370Z,87.46
2023-05-19T04:01:46.537Z,87.52
2023-05-19T04:04:14.645Z,87.29
2023-05-19T04:06:42.486Z,87.32
2023-05-19T04:09:14.737Z,87.38
2023-05-19T04:11:43.153Z,87.54
2023-05-19T04:14:11.093Z,87.64
2023-05-19T04:16:39.178Z,87.91
2023-05-19T04:19:07.324Z,87.95
2023-05-19T04:21:35.338Z,87.62
2023-05-19T04:24:06.439Z,87.67
2023-05-19T04:26:34.636Z,87.91
2023-05-19T04:29:04.935Z,87.54
2023-05-19T04:31:34.440Z,87.53
2023-05-19T04:34:02.463Z,87.48
2023-05-19T04:36:31.366Z,87.27
2023-05-19T04:39:02.317Z,87.10
2023-05-19T04:41:30.313Z,86.53
2023-05-19T04:43:58.446Z,86.20
2023-05-19T04:46:27.510Z,85.71
2023-05-19T04:48:57.180Z,85.23
2023-05-19T04:51:30.280Z,84.89
2023-05-19T04:53:58.534Z,84.77
2023-05-19T04:56:27.587Z,84.59
2023-05-19T04:58:55.633Z,84.58
2023-05-19T05:01:26.041Z,84.27
2023-05-19T05:03:55.599Z,83.85
2023-05-19T05:06:23.590Z,83.67
2023-05-19T05:08:52.942Z,83.86
2023-05-19T05:11:21.386Z,84.02
2023-05-19T05:13:50.069Z,83.65
2023-05-19T05:16:19.086Z,83.16
2023-05-19T05:18:47.455Z,82.71
2023-05-19T05:21:15.667Z,82.21
2023-05-19T05:23:43.850Z,81.87
2023-05-19T05:26:23.318Z,81.57
2023-05-19T05:28:51.276Z,81.71
2023-05-19T05:31:19.308Z,81.71
2023-05-19T05:33:47.298Z,81.74
2023-05-19T05:36:15.268Z,82.09
2023-05-19T05:38:43.352Z,81.66
2023-05-19T05:41:11.294Z,81.16
2023-05-19T05:43:39.198Z,80.81
2023-05-19T05:46:07.063Z,80.52
2023-05-19T05:48:35.725Z,80.45
2023-05-19T05:51:04.224Z,79.99
2023-05-19T05:53:38.792Z,80.25
2023-05-19T05:56:08.096Z,80.55
2023-05-19T05:58:37.731Z,80.45
2023-05-19T06:01:05.686Z,80.17
2023-05-19T06:03:33.649Z,80.23
2023-05-19T06:06:01.971Z,79.91
2023-05-19T06:08:29.910Z,79.36
2023-05-19T06:10:58.939Z,79.36
2023-05-19T06:13:26.952Z,79.53
2023-05-19T06:15:54.799Z,79.65
2023-05-19T06:18:22.770Z,78.93
2023-05-19T06:20:50.948Z,78.82
2023-05-19T06:23:18.832Z,78.51
2023-05-19T06:25:46.866Z,78.10
2023-05-19T06:28:15.003Z,77.54
2023-05-19T06:30:42.878Z,77.56
2023-05-19T06:33:10.871Z,76.80
2023-05-19T06:35:38.754Z,76.37
2023-05-19T06:38:06.728Z,76.27
2023-05-19T06:40:34.721Z,76.10
2023-05-19T06:43:03.605Z,75.73
2023-05-19T06:45:31.579Z,75.80
2023-05-19T06:47:59.559Z,75.97
2023-05-19T06:50:27.701Z,75.94
2023-05-19T06:52:57.275Z,75.22
2023-05-19T06:55:25.177Z,75.13
2023-05-19T06:57:53.068Z,74.81
2023-05-19T07:00:23.657Z,73.90
2023-05-19T07:02:52.161Z,73.55
2023-05-19T07:05:20.204Z,73.55
2023-05-19T07:07:48.054Z,73.48
2023-05-19T07:10:15.977Z,73.26
2023-05-19T07:12:44.129Z,72.87
2023-05-19T07:15:12.315Z,72.65
2023-05-19T07:17:40.250Z,72.37
2023-05-19T07:20:11.582Z,71.80
2023-05-19T07:22:40.133Z,71.23
2023-05-19T07:25:08.467Z,71.43
2023-05-19T07:27:37.054Z,71.44
2023-05-19T07:30:05.364Z,71.23
2023-05-19T07:32:33.491Z,70.52
2023-05-19T07:35:01.536Z,69.80
2023-05-19T07:37:29.479Z,68.76
2023-05-19T07:39:57.382Z,68.24
2023-05-19T07:42:25.488Z,68.51
2023-05-19T07:44:53.404Z,68.57
2023-05-19T07:47:21.269Z,67.22
2023-05-19T07:49:51.673Z,67.75
2023-05-19T07:52:19.918Z,67.15
2023-05-19T07:54:47.876Z,66.22
2023-05-19T07:57:16.078Z,64.96
2023-05-19T07:59:43.994Z,63.95
2023-05-19T08:02:11.923Z,64.66
2023-05-19T08:04:39.970Z,66.13
2023-05-19T08:07:07.972Z,66.78
2023-05-19T08:09:36.084Z,67.54
2023-05-19T08:12:05.302Z,66.66
2023-05-19T08:14:34.994Z,66.95
2023-05-19T08:17:02.994Z,66.31
2023-05-19T08:19:30.931Z,65.08
2023-05-19T08:22:01.302Z,64.69
2023-05-19T08:24:33.926Z,64.04
2023-05-19T08:27:01.893Z,62.17
2023-05-19T08:29:29.835Z,60.67
2023-05-19T08:31:58.606Z,61.29
2023-05-19T08:34:26.457Z,61.17
2023-05-19T08:36:57.772Z,60.10
2023-05-19T08:39:27.323Z,59.65
2023-05-19T08:41:55.535Z,61.13
2023-05-19T08:44:23.490Z,61.03
2023-05-19T08:46:54.416Z,61.16
2023-05-19T08:49:30.770Z,59.85
2023-05-19T08:52:31.078Z,58.56
2023-05-19T08:55:09.627Z,59.49
2023-05-19T08:57:38.709Z,59.06
2023-05-19T09:00:12.011Z,58.93
2023-05-19T09:02:50.555Z,58.77
2023-05-19T09:05:29.558Z,59.17
2023-05-19T09:07:57.751Z,59.44
2023-05-19T09:10:27.176Z,58.78
2023-05-19T09:12:57.441Z,58.07
2023-05-19T09:15:28.457Z,55.91
2023-05-19T09:18:28.793Z,55.98
2023-05-19T09:21:02.629Z,55.34
2023-05-19T09:23:34.373Z,56.52
2023-05-19T09:26:07.966Z,54.98
2023-05-19T09:28:37.798Z,53.75
2023-05-19T09:31:10.977Z,52.28
2023-05-19T09:33:41.054Z,50.46
2023-05-19T09:36:11.556Z,49.98
2023-05-19T09:38:40.485Z,49.33
2023-05-19T09:41:09.199Z,49.10
2023-05-19T09:43:37.289Z,50.21
2023-05-19T09:46:12.180Z,50.51
2023-05-19T09:48:42.596Z,50.51
2023-05-19T09:51:11.046Z,49.96
2023-05-19T09:53:39.495Z,50.64
2023-05-19T09:56:08.987Z,49.91
2023-05-19T09:58:37.719Z,50.14
2023-05-19T10:01:07.747Z,51.04
2023-05-19T10:03:36.912Z,50.56
2023-05-19T10:06:07.048Z,50.76
2023-05-19T10:08:36.081Z,49.85
2023-05-19T10:11:05.738Z,49.98
2023-05-19T10:13:38.697Z,50.74
2023-05-19T10:16:08.660Z,50.34
2023-05-19T10:18:39.986Z,49.53
2023-05-19T10:21:09.647Z,49.29
2023-05-19T10:23:38.494Z,49.82
2023-05-19T10:26:08.180Z,49.33
2023-05-19T10:28:39.696Z,48.71
2023-05-19T10:31:11.417Z,46.08
2023-05-19T10:33:57.396Z,42.04
2023-05-19T10:36:46.309Z,42.73
2023-05-19T10:39:22.470Z,41.78
2023-05-19T10:42:09.819Z,41.55
2023-05-19T10:45:16.326Z,42.44
2023-05-19T10:47:45.291Z,43.24
2023-05-19T10:50:13.961Z,42.26
2023-05-19T10:52:41.849Z,43.46
2023-05-19T10:55:17.504Z,42.82
2023-05-19T10:57:56.973Z,42.74
2023-05-19T11:00:29.598Z,43.22
2023-05-19T11:03:18.763Z,44.49
2023-05-19T11:05:50.060Z,43.64
2023-05-19T11:08:35.002Z,43.07
2023-05-19T11:11:16.863Z,43.08
2023-05-19T11:13:52.066Z,41.84
2023-05-19T11:16:28.938Z,40.73
2023-05-19T11:18:59.240Z,41.01
2023-05-19T11:21:48.526Z,40.52
2023-05-19T11:24:37.543Z,40.48
2023-05-19T11:27:34.681Z,40.38
2023-05-19T11:30:19.260Z,39.86
2023-05-19T11:32:48.440Z,39.27
2023-05-19T11:35:19.185Z,38.51
2023-05-19T11:37:49.135Z,37.08
2023-05-19T11:40:18.026Z,36.24
2023-05-19T11:42:46.194Z,36.46
2023-05-19T11:45:14.192Z,34.80
2023-05-19T11:48:00.139Z,33.88
2023-05-19T11:50:31.881Z,36.39
2023-05-19T11:53:01.578Z,36.96
2023-05-19T11:55:30.529Z,35.55
2023-05-19T12:00:39.829Z,33.03
2023-05-19T12:03:09.309Z,31.70
2023-05-19T12:05:42.818Z,31.93
2023-05-19T12:08:17.514Z,32.22
2023-05-19T12:10:48.979Z,33.16
2023-05-19T12:13:17.177Z,33.36
2023-05-19T12:15:45.299Z,32.28
2023-05-19T12:18:13.441Z,30.36
2023-05-19T12:20:41.602Z,30.73
2023-05-19T12:23:10.298Z,32.66
2023-05-19T12:25:38.585Z,33.46
2023-05-19T12:28:07.304Z,33.47
2023-05-19T12:30:41.090Z,33.92
2023-05-19T12:33:09.853Z,35.10
2023-05-19T12:35:37.946Z,34.85
2023-05-19T12:38:06.837Z,34.42
2023-05-19T12:40:36.211Z,34.45
2023-05-19T12:43:05.594Z,34.10
2023-05-19T12:45:37.384Z,34.74
2023-05-19T12:48:06.749Z,34.77
2023-05-19T12:50:37.956Z,35.41
2023-05-19T12:53:10.134Z,35.06
2023-05-19T12:55:42.968Z,34.96
2023-05-19T12:58:15.975Z,35.39
2023-05-19T13:00:47.336Z,35.34
2023-05-19T13:03:20.452Z,35.73
2023-05-19T13:05:50.437Z,35.13
2023-05-19T13:08:20.590Z,35.19
2023-05-19T13:10:49.733Z,35.49
2023-05-19T13:13:17.854Z,35.77
2023-05-19T13:15:49.068Z,34.57
2023-05-19T13:18:17.554Z,34.96
2023-05-19T13:20:47.072Z,36.11
2023-05-19T13:23:16.431Z,36.31
2023-05-19T13:25:44.533Z,35.25
2023-05-19T13:28:12.897Z,34.79
2023-05-19T13:30:41.991Z,34.62
2023-05-19T13:33:10.231Z,34.49
2023-05-19T13:35:39.265Z,35.68
2023-05-19T13:38:10.185Z,35.59
2023-05-19T13:40:39.808Z,35.97
2023-05-19T13:43:08.905Z,37.36
2023-05-19T13:45:37.301Z,39.11
2023-05-19T13:48:07.324Z,41.11
2023-05-19T13:50:35.769Z,41.34
2023-05-19T13:53:03.882Z,41.28
2023-05-19T13:55:32.927Z,42.43
2023-05-19T13:58:00.990Z,42.65
2023-05-19T14:00:31.752Z,43.33
2023-05-19T14:03:00.634Z,44.24
2023-05-19T14:05:29.159Z,45.03
2023-05-19T14:07:58.025Z,45.78
2023-05-19T14:10:26.134Z,46.02
2023-05-19T14:13:25.227Z,46.00
2023-05-19T14:15:42.113Z,45.92
2023-05-19T14:18:12.135Z,46.01
2023-05-19T14:20:40.573Z,46.23
2023-05-19T14:23:08.531Z,45.85
2023-05-19T14:25:36.498Z,45.71
2023-05-19T14:28:04.614Z,45.80
2023-05-19T14:30:32.898Z,45.69
2023-05-19T14:33:01.236Z,45.87
2023-05-19T14:35:29.298Z,46.04
2023-05-19T14:37:57.154Z,45.91
2023-05-19T14:40:25.185Z,46.10
2023-05-19T14:42:53.048Z,46.01
2023-05-19T14:45:21.108Z,45.73
2023-05-19T14:47:48.984Z,45.93
2023-05-19T14:50:17.208Z,46.04
2023-05-19T14:52:45.163Z,45.98
2023-05-19T14:55:13.229Z,45.91
2023-05-19T14:57:41.249Z,45.75
2023-05-19T15:00:10.454Z,45.81
2023-05-19T15:02:38.879Z,45.60
2023-05-19T15:05:08.164Z,45.65
2023-05-19T15:07:36.523Z,45.57
2023-05-19T15:10:04.997Z,45.44
2023-05-19T15:12:32.992Z,45.65
2023-05-19T15:15:01.402Z,45.65
2023-05-19T15:17:29.973Z,45.21
2023-05-19T15:19:58.055Z,44.83
2023-05-19T15:22:26.412Z,44.54
2023-05-19T15:24:54.345Z,43.91
2023-05-19T15:27:23.003Z,43.19
2023-05-19T15:29:51.295Z,42.93
2023-05-19T15:32:20.358Z,42.68
2023-05-19T15:34:48.345Z,41.65
2023-05-19T15:37:16.552Z,40.91
2023-05-19T15:39:44.584Z,40.98
2023-05-19T15:42:12.515Z,39.57
2023-05-19T15:44:40.504Z,38.06
2023-05-19T15:47:08.426Z,38.10
2023-05-19T15:49:36.695Z,38.71
2023-05-19T15:52:04.853Z,38.98
2023-05-19T15:54:32.791Z,38.60
2023-05-19T15:57:01.044Z,38.81
2023-05-19T15:59:29.066Z,39.71
2023-05-19T16:01:57.782Z,40.34
2023-05-19T16:04:25.716Z,40.72
2023-05-19T16:06:53.679Z,41.23
2023-05-19T16:09:21.523Z,41.64
2023-05-19T16:11:49.629Z,41.83
2023-05-19T16:14:17.668Z,42.37
2023-05-19T16:16:45.680Z,42.58
2023-05-19T16:19:13.764Z,42.95
2023-05-19T16:21:41.725Z,43.34
2023-05-19T16:24:09.754Z,43.76
2023-05-19T16:26:37.620Z,43.89
2023-05-19T16:29:05.456Z,44.28
2023-05-19T16:31:33.407Z,44.65
2023-05-19T16:34:01.411Z,44.52
2023-05-19T16:36:29.389Z,44.81
2023-05-19T16:38:57.334Z,45.47
2023-05-19T16:41:26.621Z,45.55
2023-05-19T16:43:54.657Z,45.86
2023-05-19T16:46:22.829Z,45.96
2023-05-19T16:48:50.917Z,46.15
2023-05-19T16:51:18.797Z,46.56
2023-05-19T16:53:46.780Z,47.08
2023-05-19T16:56:14.821Z,46.85
2023-05-19T16:58:42.787Z,47.08
2023-05-19T17:01:12.071Z,47.54
2023-05-19T17:03:40.108Z,47.57
2023-05-19T17:06:08.689Z,47.72
2023-05-19T17:08:36.694Z,48.25
2023-05-19T17:11:06.339Z,48.42
2023-05-19T17:13:36.311Z,48.33
2023-05-19T17:16:04.362Z,48.62
2023-05-19T17:18:32.376Z,49.18
2023-05-19T17:21:03.885Z,49.42
2023-05-19T17:23:32.925Z,50.05
2023-05-19T17:26:01.875Z,50.59
2023-05-19T17:28:30.376Z,50.41
2023-05-19T17:30:58.518Z,50.63
2023-05-19T17:33:26.601Z,50.67
2023-05-19T17:35:54.577Z,51.10
2023-05-19T17:38:22.544Z,52.18
2023-05-19T17:40:50.438Z,51.97
2023-05-19T17:43:18.476Z,51.84
2023-05-19T17:45:47.337Z,52.00
2023-05-19T17:48:16.060Z,52.17
2023-05-19T17:50:48.131Z,52.35
2023-05-19T17:53:16.428Z,52.14
2023-05-19T17:55:53.719Z,52.22
2023-05-19T17:58:22.580Z,52.77
2023-05-19T18:00:51.153Z,52.73
2023-05-19T18:03:19.568Z,53.22
2023-05-19T18:05:48.368Z,53.27
2023-05-19T18:08:16.868Z,53.93
2023-05-19T18:10:46.245Z,54.14
2023-05-19T18:13:14.402Z,54.64
2023-05-19T18:15:42.628Z,55.08
2023-05-19T18:18:11.000Z,55.17
2023-05-19T18:20:41.122Z,55.35
2023-05-19T18:23:09.174Z,55.85
2023-05-19T18:25:37.440Z,56.14
2023-05-19T18:28:05.617Z,56.30
2023-05-19T18:30:33.801Z,56.66
2023-05-19T18:33:03.934Z,56.83
2023-05-19T18:35:31.994Z,56.87
2023-05-19T18:37:59.847Z,56.30
2023-05-19T18:40:27.732Z,56.26
2023-05-19T18:42:55.677Z,56.36
2023-05-19T18:45:23.624Z,56.23
2023-05-19T18:47:51.700Z,56.40
2023-05-19T18:50:20.648Z,56.43
2023-05-19T18:52:48.519Z,56.54
2023-05-19T18:55:16.441Z,56.40
2023-05-19T18:57:44.338Z,56.51
2023-05-19T19:00:13.788Z,56.36
2023-05-19T19:02:41.787Z,56.45
2023-05-19T19:05:10.174Z,56.23
2023-05-19T19:07:42.141Z,55.93
2023-05-19T19:10:10.544Z,55.92
2023-05-19T19:12:38.961Z,56.13
2023-05-19T19:15:07.275Z,56.15
2023-05-19T19:17:35.500Z,56.15
2023-05-19T19:20:03.827Z,56.31
2023-05-19T19:22:31.784Z,56.24
2023-05-19T19:24:59.810Z,56.49
2023-05-19T19:27:31.060Z,56.44
2023-05-19T19:29:59.603Z,56.58
2023-05-19T19:32:27.720Z,56.74
2023-05-19T19:34:56.077Z,57.05
2023-05-19T19:37:24.026Z,57.17
2023-05-19T19:39:51.951Z,57.43
2023-05-19T19:42:19.890Z,57.39
2023-05-19T19:44:47.879Z,57.34
2023-05-19T19:47:15.763Z,57.42
2023-05-19T19:49:43.773Z,57.39
2023-05-19T19:52:11.668Z,57.57
2023-05-19T19:54:39.493Z,57.72
2023-05-19T19:57:08.619Z,57.70
2023-05-19T19:59:36.499Z,57.81
2023-05-19T20:02:04.625Z,58.10
2023-05-19T20:04:32.760Z,58.61
2023-05-19T20:07:00.886Z,58.69
2023-05-19T20:09:28.984Z,58.81
2023-05-19T20:11:56.988Z,59.16
2023-05-19T20:14:24.896Z,59.36
2023-05-19T20:16:52.799Z,59.54
2023-05-19T20:19:21.140Z,59.81
2023-05-19T20:21:49.292Z,60.37
2023-05-19T20:24:17.138Z,60.55
2023-05-19T20:26:45.175Z,60.75
2023-05-19T20:29:13.039Z,60.97
2023-05-19T20:31:41.226Z,60.83
2023-05-19T20:34:09.147Z,60.73
2023-05-19T20:36:39.834Z,60.90
2023-05-19T20:39:09.717Z,60.95
2023-05-19T20:41:37.600Z,61.17
2023-05-19T20:44:08.702Z,61.34
2023-05-19T20:46:36.761Z,61.31
2023-05-19T20:49:04.713Z,61.34
2023-05-19T20:51:32.891Z,61.57
2023-05-19T20:54:01.033Z,62.21
2023-05-19T20:56:28.895Z,62.17
2023-05-19T20:58:56.739Z,62.19
2023-05-19T21:01:26.271Z,62.29
2023-05-19T21:03:54.171Z,62.11
2023-05-19T21:06:22.037Z,62.22
2023-05-19T21:08:50.089Z,62.37
2023-05-19T21:11:17.955Z,62.72
2023-05-19T21:13:45.823Z,63.24
2023-05-19T21:16:13.618Z,63.53
2023-05-19T21:18:41.526Z,63.36
2023-05-19T21:21:09.548Z,63.26
2023-05-19T21:23:37.460Z,63.72
2023-05-19T21:26:06.639Z,64.00
2023-05-19T21:28:34.652Z,63.81
2023-05-19T21:31:02.700Z,63.72
2023-05-19T21:33:31.303Z,63.61
2023-05-19T21:36:00.503Z,63.88
2023-05-19T21:38:28.516Z,64.51
2023-05-19T21:40:56.476Z,64.38
2023-05-19T21:43:24.542Z,64.59
2023-05-19T21:45:52.593Z,64.30
2023-05-19T21:48:21.669Z,64.40
2023-05-19T21:50:55.911Z,64.80
2023-05-19T21:53:24.570Z,65.22
2023-05-19T21:55:52.646Z,65.33
2023-05-19T21:58:20.526Z,65.62
2023-05-19T22:00:53.179Z,65.65
2023-05-19T22:03:21.850Z,66.08
2023-05-19T22:05:50.862Z,65.82
2023-05-19T22:08:19.889Z,66.49
2023-05-19T22:10:52.095Z,66.85
2023-05-19T22:13:20.267Z,66.46
2023-05-19T22:15:48.239Z,66.21
2023-05-19T22:18:16.920Z,66.14
2023-05-19T22:20:44.902Z,66.16
2023-05-19T22:23:12.766Z,66.22
2023-05-19T22:25:40.745Z,66.31
2023-05-19T22:28:09.261Z,66.41
2023-05-19T22:30:41.014Z,66.74
2023-05-19T22:33:09.655Z,66.89
2023-05-19T22:35:37.699Z,67.12
2023-05-19T22:38:05.713Z,66.97
2023-05-19T22:40:34.572Z,67.14
2023-05-19T22:43:02.838Z,67.12
2023-05-19T22:45:31.532Z,67.63
2023-05-19T22:47:59.757Z,68.28
2023-05-19T22:50:27.865Z,68.46
2023-05-19T22:52:55.842Z,68.75
2023-05-19T22:55:23.752Z,68.78
2023-05-19T22:57:51.687Z,68.92
2023-05-19T23:00:21.163Z,68.87
2023-05-19T23:02:49.005Z,69.49
2023-05-19T23:05:16.861Z,69.60
2023-05-19T23:07:44.751Z,69.84
2023-05-19T23:10:12.903Z,69.92
2023-05-19T23:12:40.832Z,69.85
2023-05-19T23:15:09.838Z,69.84
2023-05-19T23:17:38.158Z,70.08
2023-05-19T23:20:06.630Z,70.30
2023-05-19T23:22:34.437Z,70.13
2023-05-19T23:25:07.702Z,69.83
2023-05-19T23:27:36.211Z,69.98
2023-05-19T23:30:04.943Z,70.09
2023-05-19T23:32:32.870Z,69.79
2023-05-19T23:35:15.790Z,69.85
2023-05-19T23:37:43.727Z,69.85
2023-05-19T23:40:12.098Z,69.93
2023-05-19T23:42:39.958Z,70.06
2023-05-19T23:45:08.491Z,70.15
2023-05-19T23:47:36.784Z,70.39
2023-05-19T23:50:04.941Z,70.91
2023-05-19T23:52:32.939Z,70.52
2023-05-19T23:55:00.887Z,71.00
2023-05-19T23:57:28.876Z,71.33
2023-05-19T23:59:56.778Z,71.33
